createdAt,value
2023-05-24T00:00:53.500Z,19.45
2023-05-24T00:03:21.978Z,19.44
2023-05-24T00:05:49.600Z,19.40
2023-05-24T00:08:17.220Z,19.37
2023-05-24T00:10:44.732Z,19.33
2023-05-24T00:13:12.458Z,19.30
2023-05-24T00:15:40.030Z,19.25
2023-05-24T00:18:07.723Z,19.21
2023-05-24T00:20:35.498Z,19.18
2023-05-24T00:23:02.935Z,19.15
2023-05-24T00:25:30.590Z,19.12
2023-05-24T00:27:58.103Z,19.09
2023-05-24T00:30:26.634Z,19.06
2023-05-24T00:32:56.304Z,19.02
2023-05-24T00:35:24.053Z,18.98
2023-05-24T00:37:51.495Z,18.94
2023-05-24T00:40:18.987Z,18.93
2023-05-24T00:42:46.348Z,18.92
2023-05-24T00:45:13.860Z,18.91
2023-05-24T00:47:41.467Z,18.90
2023-05-24T00:50:10.130Z,18.89
2023-05-24T00:52:37.704Z,18.88
2023-05-24T00:55:06.295Z,18.86
2023-05-24T00:57:33.958Z,18.86
2023-05-24T01:00:01.398Z,18.84
2023-05-24T01:02:29.098Z,18.82
2023-05-24T01:04:58.286Z,18.81
2023-05-24T01:07:44.686Z,18.79
2023-05-24T01:10:31.085Z,18.77
2023-05-24T01:13:06.168Z,18.76
2023-05-24T01:15:49.255Z,18.75
2023-05-24T01:18:22.295Z,18.74
2023-05-24T01:21:19.519Z,18.73
2023-05-24T01:24:05.367Z,18.75
2023-05-24T01:27:08.375Z,18.76
2023-05-24T01:29:36.168Z,18.81
2023-05-24T01:32:03.818Z,18.84
2023-05-24T01:34:31.254Z,18.86
2023-05-24T01:36:58.686Z,18.88
2023-05-24T01:39:28.070Z,18.89
2023-05-24T01:42:12.639Z,18.89
2023-05-24T01:44:56.690Z,18.89
2023-05-24T01:47:49.106Z,18.88
2023-05-24T01:50:25.944Z,18.87
2023-05-24T01:52:53.752Z,18.86
2023-05-24T01:55:21.334Z,18.85
2023-05-24T01:57:49.205Z,18.84
2023-05-24T02:00:18.420Z,18.84
2023-05-24T02:02:46.119Z,18.82
2023-05-24T02:05:13.710Z,18.81
2023-05-24T02:07:42.129Z,18.78
2023-05-24T02:10:09.723Z,18.76
2023-05-24T02:12:37.258Z,18.75
2023-05-24T02:15:06.345Z,18.73
2023-05-24T02:17:33.999Z,18.69
2023-05-24T02:20:01.844Z,18.67
2023-05-24T02:22:29.566Z,18.65
2023-05-24T02:24:57.940Z,18.63
2023-05-24T02:27:25.517Z,18.61
2023-05-24T02:29:53.085Z,18.60
2023-05-24T02:32:20.851Z,18.58
2023-05-24T02:34:48.522Z,18.57
2023-05-24T02:37:15.977Z,18.54
2023-05-24T02:39:43.420Z,18.53
2023-05-24T02:42:11.658Z,18.52
2023-05-24T02:44:39.298Z,18.49
2023-05-24T02:47:07.382Z,18.48
2023-05-24T02:49:34.938Z,18.45
2023-05-24T02:52:02.632Z,18.44
2023-05-24T02:54:30.700Z,18.44
2023-05-24T02:56:58.476Z,18.42
2023-05-24T02:59:26.188Z,18.41
2023-05-24T03:01:53.567Z,18.39
2023-05-24T03:04:21.244Z,18.39
2023-05-24T03:06:49.226Z,18.38
2023-05-24T03:09:19.245Z,18.37
2023-05-24T03:11:47.329Z,18.36
2023-05-24T03:14:15.169Z,18.34
2023-05-24T03:16:43.350Z,18.34
2023-05-24T03:19:11.053Z,18.34
2023-05-24T03:21:38.506Z,18.34
2023-05-24T03:24:06.662Z,18.34
2023-05-24T03:26:34.255Z,18.35
2023-05-24T03:29:02.235Z,18.36
2023-05-24T03:31:35.346Z,18.38
2023-05-24T03:34:03.251Z,18.39
2023-05-24T03:36:31.126Z,18.41
2023-05-24T03:38:59.200Z,18.43
2023-05-24T03:41:27.727Z,18.45
2023-05-24T03:43:58.518Z,18.48
2023-05-24T03:46:27.286Z,18.51
2023-05-24T03:48:55.561Z,18.53
2023-05-24T03:51:29.854Z,18.54
2023-05-24T03:53:57.938Z,18.57
2023-05-24T03:56:26.935Z,18.60
2023-05-24T03:58:54.558Z,18.62
2023-05-24T04:01:32.667Z,18.65
2023-05-24T04:04:01.910Z,18.69
2023-05-24T04:06:29.970Z,18.73
2023-05-24T04:08:59.311Z,18.75
2023-05-24T04:11:29.767Z,18.79
2023-05-24T04:13:57.849Z,18.84
2023-05-24T04:16:26.619Z,18.88
2023-05-24T04:18:55.385Z,18.93
2023-05-24T04:21:23.148Z,18.96
2023-05-24T04:23:50.830Z,19.02
2023-05-24T04:26:18.693Z,19.08
2023-05-24T04:28:47.080Z,19.13
2023-05-24T04:31:16.733Z,19.18
2023-05-24T04:33:44.332Z,19.24
2023-05-24T04:36:11.998Z,19.30
2023-05-24T04:38:41.140Z,19.34
2023-05-24T04:41:08.691Z,19.39
2023-05-24T04:43:36.123Z,19.46
2023-05-24T04:46:05.357Z,19.50
2023-05-24T04:48:33.735Z,19.56
2023-05-24T04:51:01.319Z,19.62
2023-05-24T04:53:28.756Z,19.66
2023-05-24T04:55:56.239Z,19.70
2023-05-24T04:58:23.803Z,19.73
2023-05-24T05:00:51.567Z,19.79
2023-05-24T05:03:19.098Z,19.84
2023-05-24T05:05:46.671Z,19.89
2023-05-24T05:08:14.329Z,19.95
2023-05-24T05:10:42.881Z,20.00
2023-05-24T05:13:12.522Z,20.04
2023-05-24T05:15:41.618Z,20.09
2023-05-24T05:18:10.566Z,20.15
2023-05-24T05:20:38.744Z,20.20
2023-05-24T05:23:06.527Z,20.27
2023-05-24T05:25:33.981Z,20.32
2023-05-24T05:28:01.438Z,20.39
2023-05-24T05:30:29.077Z,20.46
2023-05-24T05:32:56.655Z,20.53
2023-05-24T05:35:24.345Z,20.60
2023-05-24T05:37:51.911Z,20.68
2023-05-24T05:40:19.471Z,20.76
2023-05-24T05:42:47.748Z,20.85
2023-05-24T05:45:15.130Z,20.94
2023-05-24T05:47:43.418Z,21.02
2023-05-24T05:50:11.548Z,21.10
2023-05-24T05:52:39.047Z,21.19
2023-05-24T05:55:07.485Z,21.28
2023-05-24T05:57:35.567Z,21.38
2023-05-24T06:00:04.095Z,21.46
2023-05-24T06:02:39.502Z,21.55
2023-05-24T06:05:07.919Z,21.65
2023-05-24T06:07:37.734Z,21.74
2023-05-24T06:10:06.422Z,21.83
2023-05-24T06:12:34.611Z,21.92
2023-05-24T06:15:02.375Z,22.01
2023-05-24T06:17:30.346Z,22.07
2023-05-24T06:19:58.264Z,22.13
2023-05-24T06:22:27.690Z,22.22
2023-05-24T06:24:55.397Z,22.30
2023-05-24T06:27:22.966Z,22.34
2023-05-24T06:29:50.609Z,22.40
2023-05-24T06:32:18.173Z,22.47
2023-05-24T06:34:45.904Z,22.54
2023-05-24T06:37:15.254Z,22.61
2023-05-24T06:39:42.655Z,22.68
2023-05-24T06:42:10.201Z,22.74
2023-05-24T06:44:37.633Z,22.82
2023-05-24T06:47:05.989Z,22.91
2023-05-24T06:49:34.254Z,23.00
2023-05-24T06:52:01.897Z,23.09
2023-05-24T06:54:29.333Z,23.17
2023-05-24T06:56:56.985Z,23.27
2023-05-24T06:59:24.466Z,23.41
2023-05-24T07:01:58.903Z,23.63
2023-05-24T07:04:29.488Z,23.92
2023-05-24T07:06:57.993Z,24.24
2023-05-24T07:09:25.614Z,25.06
2023-05-24T07:11:53.276Z,26.67
2023-05-24T07:14:21.207Z,27.73
2023-05-24T07:16:48.964Z,27.84
2023-05-24T07:19:16.772Z,27.59
2023-05-24T07:21:44.341Z,27.29
2023-05-24T07:24:13.064Z,27.03
2023-05-24T07:26:41.724Z,26.90
2023-05-24T07:29:09.470Z,26.79
2023-05-24T07:31:37.213Z,26.72
2023-05-24T07:34:04.830Z,26.69
2023-05-24T07:36:35.035Z,26.69
2023-05-24T07:39:04.636Z,26.81
2023-05-24T07:41:33.586Z,27.57
2023-05-24T07:44:01.235Z,29.14
2023-05-24T07:46:28.785Z,30.42
2023-05-24T07:48:56.635Z,31.68
2023-05-24T07:51:24.003Z,33.36
2023-05-24T07:53:51.601Z,35.24
2023-05-24T07:56:18.996Z,36.83
2023-05-24T07:58:47.173Z,37.65
2023-05-24T08:01:14.964Z,37.51
2023-05-24T08:03:42.755Z,37.02
2023-05-24T08:06:10.862Z,36.21
2023-05-24T08:08:39.754Z,35.00
2023-05-24T08:11:08.453Z,33.60
2023-05-24T08:13:36.119Z,32.44
2023-05-24T08:16:04.114Z,31.59
2023-05-24T08:18:31.664Z,30.89
2023-05-24T08:20:59.113Z,30.27
2023-05-24T08:23:27.223Z,29.71
2023-05-24T08:25:54.755Z,29.23
2023-05-24T08:28:22.281Z,28.81
2023-05-24T08:30:49.855Z,28.43
2023-05-24T08:33:17.607Z,28.06
2023-05-24T08:35:45.302Z,27.70
2023-05-24T08:38:12.819Z,27.41
2023-05-24T08:40:40.211Z,27.16
2023-05-24T08:43:12.088Z,26.94
2023-05-24T08:45:39.975Z,26.77
2023-05-24T08:48:07.901Z,26.63
2023-05-24T08:50:35.781Z,26.50
2023-05-24T08:53:03.683Z,26.40
2023-05-24T08:55:33.081Z,26.30
2023-05-24T08:58:01.531Z,26.22
2023-05-24T09:00:29.236Z,26.16
2023-05-24T09:02:57.697Z,26.10
2023-05-24T09:05:25.222Z,26.06
2023-05-24T09:07:52.788Z,26.01
2023-05-24T09:10:23.477Z,25.96
2023-05-24T09:12:56.438Z,25.92
2023-05-24T09:15:24.028Z,25.91
2023-05-24T09:17:51.635Z,25.89
2023-05-24T09:20:20.182Z,25.78
2023-05-24T09:22:52.214Z,25.58
2023-05-24T09:25:20.571Z,25.44
2023-05-24T09:27:52.191Z,25.31
2023-05-24T09:30:20.419Z,25.25
2023-05-24T09:33:01.198Z,25.26
2023-05-24T09:35:28.789Z,25.31
2023-05-24T09:37:57.644Z,25.37
2023-05-24T09:40:25.246Z,25.44
2023-05-24T09:43:07.452Z,25.50
2023-05-24T09:45:47.768Z,25.62
2023-05-24T09:48:19.429Z,25.68
2023-05-24T09:51:11.596Z,25.70
2023-05-24T09:53:39.554Z,25.75
2023-05-24T09:56:10.369Z,25.80
2023-05-24T09:58:37.948Z,25.87
2023-05-24T10:01:11.204Z,25.92
2023-05-24T10:03:39.000Z,25.96
2023-05-24T10:06:10.099Z,26.00
2023-05-24T10:08:37.819Z,26.01
2023-05-24T10:11:06.010Z,26.01
2023-05-24T10:13:36.745Z,26.01
2023-05-24T10:16:04.922Z,26.00
2023-05-24T10:18:32.631Z,25.93
2023-05-24T10:21:01.247Z,25.86
2023-05-24T10:23:30.688Z,25.80
2023-05-24T10:26:09.181Z,25.77
2023-05-24T10:28:41.391Z,25.72
2023-05-24T10:31:16.159Z,25.70
2023-05-24T10:33:45.123Z,25.71
2023-05-24T10:36:14.216Z,25.73
2023-05-24T10:38:41.778Z,25.78
2023-05-24T10:41:09.320Z,25.83
2023-05-24T10:43:37.300Z,25.88
2023-05-24T10:46:05.462Z,25.95
2023-05-24T10:48:34.269Z,26.03
2023-05-24T10:51:10.840Z,26.15
2023-05-24T10:53:39.222Z,26.28
2023-05-24T10:56:09.621Z,26.41
2023-05-24T10:58:56.568Z,26.53
2023-05-24T11:01:28.464Z,26.66
2023-05-24T11:04:18.728Z,26.73
2023-05-24T11:07:03.387Z,26.79
2023-05-24T11:09:30.939Z,26.86
2023-05-24T11:12:07.642Z,26.93
2023-05-24T11:14:42.527Z,26.99
2023-05-24T11:17:10.811Z,27.02
2023-05-24T11:19:47.563Z,27.09
2023-05-24T11:22:15.446Z,27.18
2023-05-24T11:24:43.157Z,27.22
2023-05-24T11:27:11.853Z,27.24
2023-05-24T11:29:45.768Z,27.22
2023-05-24T11:32:17.397Z,27.26
2023-05-24T11:34:48.193Z,27.32
2023-05-24T11:37:17.463Z,27.40
2023-05-24T11:39:50.197Z,27.43
2023-05-24T11:42:17.763Z,27.32
2023-05-24T11:44:48.241Z,27.29
2023-05-24T11:47:16.024Z,27.27
2023-05-24T11:49:43.419Z,27.31
2023-05-24T11:52:10.931Z,27.40
2023-05-24T11:54:39.253Z,27.44
2023-05-24T11:57:06.687Z,27.47
2023-05-24T11:59:38.207Z,27.51
2023-05-24T12:02:06.782Z,27.57
2023-05-24T12:04:35.095Z,27.65
2023-05-24T12:07:03.424Z,27.72
2023-05-24T12:09:31.027Z,27.83
2023-05-24T12:11:58.985Z,27.98
2023-05-24T12:14:33.594Z,28.13
2023-05-24T12:17:01.478Z,28.28
2023-05-24T12:19:36.849Z,28.33
2023-05-24T12:22:09.206Z,28.33
2023-05-24T12:24:37.721Z,28.31
2023-05-24T12:27:12.133Z,28.26
2023-05-24T12:29:41.226Z,28.20
2023-05-24T12:32:14.030Z,28.09
2023-05-24T12:34:43.549Z,27.95
2023-05-24T12:37:13.021Z,27.83
2023-05-24T12:39:43.341Z,27.73
2023-05-24T12:42:13.095Z,27.64
2023-05-24T12:44:40.974Z,27.58
2023-05-24T12:47:09.106Z,27.55
2023-05-24T12:49:37.054Z,27.53
2023-05-24T12:52:05.139Z,27.49
2023-05-24T12:54:32.766Z,27.43
2023-05-24T12:57:00.658Z,27.34
2023-05-24T12:59:28.957Z,27.24
2023-05-24T13:01:57.704Z,27.18
2023-05-24T13:04:28.251Z,27.11
2023-05-24T13:06:56.019Z,27.05
2023-05-24T13:09:24.127Z,26.99
2023-05-24T13:11:52.905Z,26.95
2023-05-24T13:14:20.643Z,26.90
2023-05-24T13:16:48.748Z,26.85
2023-05-24T13:19:17.283Z,26.81
2023-05-24T13:21:45.391Z,26.78
2023-05-24T13:24:15.993Z,26.77
2023-05-24T13:26:44.252Z,26.73
2023-05-24T13:31:42.710Z,26.62
2023-05-24T13:34:13.598Z,26.57
2023-05-24T13:36:42.757Z,26.52
2023-05-24T13:39:16.330Z,26.44
2023-05-24T13:41:44.806Z,26.33
2023-05-24T13:44:13.420Z,26.24
2023-05-24T13:46:41.465Z,26.19
2023-05-24T13:49:09.648Z,26.15
2023-05-24T13:51:38.073Z,26.11
2023-05-24T13:54:07.866Z,26.09
2023-05-24T13:56:36.797Z,26.15
2023-05-24T13:59:04.916Z,26.22
2023-05-24T14:01:33.465Z,26.26
2023-05-24T14:04:02.058Z,26.29
2023-05-24T14:06:29.689Z,26.34
2023-05-24T14:08:57.240Z,26.40
2023-05-24T14:11:25.789Z,26.45
2023-05-24T14:16:24.741Z,26.52
2023-05-24T14:18:52.631Z,26.55
2023-05-24T14:21:21.948Z,26.57
2023-05-24T14:23:49.859Z,26.58
2023-05-24T14:26:18.349Z,26.58
2023-05-24T14:28:46.312Z,26.59
2023-05-24T14:31:13.959Z,26.65
2023-05-24T14:33:41.687Z,26.72
2023-05-24T14:36:09.387Z,26.78
2023-05-24T14:38:37.130Z,26.83
2023-05-24T14:41:04.688Z,26.88
2023-05-24T14:43:32.164Z,26.94
2023-05-24T14:45:59.667Z,26.96
2023-05-24T14:48:27.075Z,26.97
2023-05-24T14:50:54.501Z,26.95
2023-05-24T14:53:22.109Z,26.87
2023-05-24T14:55:49.508Z,26.76
2023-05-24T14:58:17.141Z,26.65
2023-05-24T15:00:45.535Z,26.53
2023-05-24T15:03:14.926Z,26.39
2023-05-24T15:05:43.137Z,26.27
2023-05-24T15:08:11.731Z,26.16
2023-05-24T15:10:40.286Z,26.04
2023-05-24T15:13:08.358Z,25.94
2023-05-24T15:15:36.241Z,25.87
2023-05-24T15:18:03.929Z,25.80
2023-05-24T15:20:35.684Z,25.72
2023-05-24T15:23:03.846Z,25.68
2023-05-24T15:25:31.429Z,25.63
2023-05-24T15:27:59.083Z,25.60
2023-05-24T15:30:26.751Z,25.55
2023-05-24T15:32:54.341Z,25.51
2023-05-24T15:35:23.312Z,25.43
2023-05-24T15:37:50.792Z,25.35
2023-05-24T15:40:18.844Z,25.29
2023-05-24T15:42:46.667Z,25.24
2023-05-24T15:45:14.128Z,25.18
2023-05-24T15:47:41.668Z,25.14
2023-05-24T15:50:09.832Z,25.10
2023-05-24T15:52:37.351Z,25.04
2023-05-24T15:55:05.581Z,25.00
2023-05-24T15:57:33.148Z,24.91
2023-05-24T16:00:01.435Z,24.82
2023-05-24T16:02:30.585Z,24.75
2023-05-24T16:04:58.902Z,24.64
2023-05-24T16:07:26.429Z,24.53
2023-05-24T16:09:54.456Z,24.44
2023-05-24T16:12:22.208Z,24.40
2023-05-24T16:14:49.788Z,24.36
2023-05-24T16:17:17.499Z,24.33
2023-05-24T16:19:49.611Z,24.27
2023-05-24T16:22:17.363Z,24.20
2023-05-24T16:24:44.902Z,24.15
2023-05-24T16:27:12.430Z,24.10
2023-05-24T16:29:39.900Z,24.05
2023-05-24T16:32:08.759Z,24.02
2023-05-24T16:34:52.080Z,24.02
2023-05-24T16:37:23.483Z,24.00
2023-05-24T16:39:50.960Z,23.98
2023-05-24T16:42:18.420Z,23.97
2023-05-24T16:44:46.045Z,23.94
2023-05-24T16:47:13.466Z,23.92
2023-05-24T16:49:41.312Z,23.92
2023-05-24T16:52:08.932Z,23.91
2023-05-24T16:54:36.518Z,23.89
2023-05-24T16:57:04.094Z,23.88
2023-05-24T16:59:32.257Z,23.89
2023-05-24T17:01:59.673Z,23.89
2023-05-24T17:04:27.184Z,23.88
2023-05-24T17:06:54.613Z,23.87
2023-05-24T17:09:22.425Z,23.84
2023-05-24T17:11:50.919Z,23.81
2023-05-24T17:14:18.543Z,23.76
2023-05-24T17:16:46.212Z,23.74
2023-05-24T17:19:14.224Z,23.73
2023-05-24T17:21:42.166Z,23.71
2023-05-24T17:24:09.777Z,23.70
2023-05-24T17:26:39.270Z,23.68
2023-05-24T17:29:06.696Z,23.64
2023-05-24T17:31:34.424Z,23.61
2023-05-24T17:34:02.245Z,23.58
2023-05-24T17:36:33.749Z,23.54
2023-05-24T17:39:01.263Z,23.51
2023-05-24T17:41:28.769Z,23.47
2023-05-24T17:43:56.208Z,23.44
2023-05-24T17:46:23.870Z,23.41
2023-05-24T17:48:52.198Z,23.37
2023-05-24T17:51:19.889Z,23.33
2023-05-24T17:53:47.603Z,23.30
2023-05-24T17:56:15.268Z,23.28
2023-05-24T17:58:43.345Z,23.25
2023-05-24T18:01:12.260Z,23.21
2023-05-24T18:03:41.045Z,23.18
2023-05-24T18:06:09.121Z,23.15
2023-05-24T18:08:38.388Z,23.12
2023-05-24T18:11:09.694Z,23.09
2023-05-24T18:13:37.844Z,23.06
2023-05-24T18:16:06.728Z,23.02
2023-05-24T18:18:34.819Z,22.97
2023-05-24T18:33:35.069Z,22.86
2023-05-24T18:36:03.547Z,23.18
2023-05-24T18:38:31.626Z,23.14
2023-05-24T18:41:00.661Z,23.09
2023-05-24T18:43:28.741Z,23.03
2023-05-24T18:46:12.208Z,22.98
2023-05-24T18:48:41.622Z,22.92
2023-05-24T18:51:09.747Z,22.87
2023-05-24T18:53:41.160Z,22.82
2023-05-24T18:56:08.815Z,22.77
2023-05-24T18:58:36.542Z,22.72
2023-05-24T19:01:03.997Z,22.68
2023-05-24T19:03:31.694Z,22.63
2023-05-24T19:06:25.422Z,22.60
2023-05-24T19:08:53.015Z,22.55
2023-05-24T19:11:22.550Z,22.51
2023-05-24T19:13:54.015Z,22.47
2023-05-24T19:16:28.912Z,22.43
2023-05-24T19:19:00.123Z,22.40
2023-05-24T19:21:38.312Z,22.36
2023-05-24T19:24:07.733Z,22.33
2023-05-24T19:26:38.385Z,22.30
2023-05-24T19:29:08.006Z,22.26
2023-05-24T19:31:36.503Z,22.25
2023-05-24T19:34:06.795Z,22.24
2023-05-24T19:36:37.706Z,22.23
2023-05-24T19:39:06.500Z,22.22
2023-05-24T19:41:36.285Z,22.19
2023-05-24T19:44:04.145Z,22.17
2023-05-24T19:46:34.109Z,22.16
2023-05-24T19:49:04.674Z,22.13
2023-05-24T19:51:32.255Z,22.10
2023-05-24T19:54:01.835Z,22.08
2023-05-24T19:56:31.252Z,22.08
2023-05-24T19:58:59.193Z,22.06
2023-05-24T20:01:28.835Z,22.04
2023-05-24T20:03:57.978Z,22.03
2023-05-24T20:06:26.543Z,22.02
2023-05-24T20:09:02.588Z,22.00
2023-05-24T20:11:31.041Z,21.98
2023-05-24T20:14:01.402Z,21.95
2023-05-24T20:16:32.310Z,21.94
2023-05-24T20:18:59.842Z,21.92
2023-05-24T20:21:27.767Z,21.89
2023-05-24T20:23:58.821Z,21.87
2023-05-24T20:26:26.776Z,21.85
2023-05-24T20:28:54.211Z,21.82
2023-05-24T20:31:21.630Z,21.78
2023-05-24T20:33:51.673Z,21.76
2023-05-24T20:36:19.295Z,21.74
2023-05-24T20:38:47.778Z,21.71
2023-05-24T20:41:16.197Z,21.68
2023-05-24T20:43:43.841Z,21.67
2023-05-24T20:46:11.774Z,21.66
2023-05-24T20:48:39.900Z,21.65
2023-05-24T20:51:08.377Z,21.63
2023-05-24T20:53:35.912Z,21.61
2023-05-24T20:56:03.613Z,21.59
2023-05-24T20:58:31.553Z,21.56
2023-05-24T21:00:59.276Z,21.52
2023-05-24T21:03:27.026Z,21.49
2023-05-24T21:05:54.703Z,21.47
2023-05-24T21:08:22.529Z,21.46
2023-05-24T21:10:50.256Z,21.45
2023-05-24T21:13:20.636Z,21.43
2023-05-24T21:15:48.229Z,21.42
2023-05-24T21:18:16.182Z,21.41
2023-05-24T21:20:43.648Z,21.39
2023-05-24T21:23:11.521Z,21.38
2023-05-24T21:25:38.908Z,21.36
2023-05-24T21:28:06.358Z,21.35
2023-05-24T21:30:33.787Z,21.33
2023-05-24T21:33:01.325Z,21.32
2023-05-24T21:35:28.738Z,21.30
2023-05-24T21:37:57.239Z,21.29
2023-05-24T21:40:24.714Z,21.27
2023-05-24T21:42:52.139Z,21.26
2023-05-24T21:45:19.603Z,21.25
2023-05-24T21:47:47.037Z,21.23
2023-05-24T21:50:14.565Z,21.22
2023-05-24T21:52:42.022Z,21.21
2023-05-24T21:55:10.149Z,21.21
2023-05-24T21:57:38.111Z,21.21
2023-05-24T22:00:05.961Z,21.20
2023-05-24T22:02:33.423Z,21.20
2023-05-24T22:05:01.521Z,21.20
2023-05-24T22:07:29.085Z,21.19
2023-05-24T22:09:56.731Z,21.18
2023-05-24T22:12:24.282Z,21.17
2023-05-24T22:14:51.702Z,21.16
2023-05-24T22:17:19.350Z,21.14
2023-05-24T22:19:48.166Z,21.11
2023-05-24T22:22:19.816Z,21.09
2023-05-24T22:24:47.393Z,21.08
2023-05-24T22:27:17.057Z,21.06
2023-05-24T22:29:44.820Z,21.04
2023-05-24T22:32:12.568Z,21.02
2023-05-24T22:34:40.097Z,20.99
2023-05-24T22:37:07.499Z,20.96
2023-05-24T22:39:34.956Z,20.94
2023-05-24T22:42:02.815Z,20.91
2023-05-24T22:44:30.274Z,20.88
2023-05-24T22:46:57.672Z,20.87
2023-05-24T22:49:25.092Z,20.86
2023-05-24T22:51:55.545Z,20.85
2023-05-24T22:54:23.064Z,20.85
2023-05-24T22:56:50.588Z,20.85
2023-05-24T22:59:18.000Z,20.84
2023-05-24T23:01:45.609Z,20.86
2023-05-24T23:06:46.506Z,20.85
2023-05-24T23:09:13.955Z,20.85
2023-05-24T23:11:43.086Z,20.85
2023-05-24T23:14:11.846Z,20.84
2023-05-24T23:16:45.714Z,20.84
2023-05-24T23:19:18.870Z,20.83
2023-05-24T23:21:46.627Z,20.82
2023-05-24T23:24:16.888Z,20.81
2023-05-24T23:26:44.274Z,20.79
2023-05-24T23:29:11.771Z,20.76
2023-05-24T23:31:39.521Z,20.74
2023-05-24T23:34:07.187Z,20.72
2023-05-24T23:36:34.756Z,20.70
2023-05-24T23:39:02.140Z,20.67
2023-05-24T23:41:29.568Z,20.66
2023-05-24T23:43:57.783Z,20.65
2023-05-24T23:46:25.249Z,20.64
2023-05-24T23:48:52.725Z,20.64
2023-05-24T23:51:20.458Z,20.65
2023-05-24T23:53:47.893Z,20.64
2023-05-24T23:56:15.757Z,20.64
2023-05-24T23:58:44.015Z,20.64
